sensor_id;sensor_type;location;lat;lon;timestamp;P1;durP1;ratioP1;P2;durP2;ratioP2
45198;SDS011;30941;46.422;18.772;2022-08-16T00:01:33;10.70;;;4.05;;
45198;SDS011;30941;46.422;18.772;2022-08-16T00:03:58;7.82;;;4.28;;
45198;SDS011;30941;46.422;18.772;2022-08-16T00:06:24;4.57;;;3.60;;
45198;SDS011;30941;46.422;18.772;2022-08-16T00:08:49;7.43;;;4.72;;
45198;SDS011;30941;46.422;18.772;2022-08-16T00:11:15;5.38;;;4.30;;
45198;SDS011;30941;46.422;18.772;2022-08-16T00:13:41;5.93;;;4.28;;
45198;SDS011;30941;46.422;18.772;2022-08-16T00:16:08;8.38;;;4.15;;
45198;SDS011;30941;46.422;18.772;2022-08-16T00:18:33;8.63;;;3.88;;
45198;SDS011;30941;46.422;18.772;2022-08-16T00:20:59;6.10;;;4.45;;
45198;SDS011;30941;46.422;18.772;2022-08-16T00:23:24;6.68;;;4.20;;
45198;SDS011;30941;46.422;18.772;2022-08-16T00:25:50;9.60;;;4.78;;
45198;SDS011;30941;46.422;18.772;2022-08-16T00:28:15;5.45;;;4.30;;
45198;SDS011;30941;46.422;18.772;2022-08-16T00:30:41;7.35;;;4.35;;
45198;SDS011;30941;46.422;18.772;2022-08-16T00:33:06;5.38;;;4.22;;
45198;SDS011;30941;46.422;18.772;2022-08-16T00:35:34;7.75;;;4.28;;
45198;SDS011;30941;46.422;18.772;2022-08-16T00:38:01;6.13;;;4.55;;
45198;SDS011;30941;46.422;18.772;2022-08-16T00:42:52;4.40;;;3.58;;
45198;SDS011;30941;46.422;18.772;2022-08-16T00:47:56;6.90;;;4.22;;
45198;SDS011;30941;46.422;18.772;2022-08-16T00:50:23;4.80;;;3.97;;
45198;SDS011;30941;46.422;18.772;2022-08-16T00:52:51;5.78;;;3.78;;
45198;SDS011;30941;46.422;18.772;2022-08-16T00:55:17;4.50;;;3.90;;
45198;SDS011;30941;46.422;18.772;2022-08-16T00:57:44;12.40;;;4.28;;
45198;SDS011;30941;46.422;18.772;2022-08-16T01:00:10;5.93;;;3.88;;
45198;SDS011;30941;46.422;18.772;2022-08-16T01:02:36;7.65;;;3.95;;
45198;SDS011;30941;46.422;18.772;2022-08-16T01:05:01;6.88;;;3.92;;
45198;SDS011;30941;46.422;18.772;2022-08-16T01:07:27;5.85;;;4.35;;
45198;SDS011;30941;46.422;18.772;2022-08-16T01:09:53;7.18;;;3.83;;
45198;SDS011;30941;46.422;18.772;2022-08-16T01:12:18;5.35;;;3.70;;
45198;SDS011;30941;46.422;18.772;2022-08-16T01:14:47;4.95;;;3.40;;
45198;SDS011;30941;46.422;18.772;2022-08-16T01:17:14;5.22;;;3.70;;
45198;SDS011;30941;46.422;18.772;2022-08-16T01:19:45;4.85;;;3.70;;
45198;SDS011;30941;46.422;18.772;2022-08-16T01:24:47;9.90;;;4.32;;
45198;SDS011;30941;46.422;18.772;2022-08-16T01:27:20;5.40;;;4.70;;
45198;SDS011;30941;46.422;18.772;2022-08-16T01:29:57;6.05;;;4.20;;
45198;SDS011;30941;46.422;18.772;2022-08-16T01:32:23;7.95;;;4.35;;
45198;SDS011;30941;46.422;18.772;2022-08-16T01:34:49;10.98;;;4.38;;
45198;SDS011;30941;46.422;18.772;2022-08-16T01:37:14;6.57;;;4.20;;
45198;SDS011;30941;46.422;18.772;2022-08-16T01:39:40;8.20;;;4.25;;
45198;SDS011;30941;46.422;18.772;2022-08-16T01:42:06;5.35;;;4.00;;
45198;SDS011;30941;46.422;18.772;2022-08-16T01:44:33;5.95;;;4.78;;
45198;SDS011;30941;46.422;18.772;2022-08-16T01:47:00;5.55;;;4.03;;
45198;SDS011;30941;46.422;18.772;2022-08-16T01:49:27;5.70;;;4.10;;
45198;SDS011;30941;46.422;18.772;2022-08-16T01:52:05;6.28;;;4.30;;
45198;SDS011;30941;46.422;18.772;2022-08-16T01:54:32;5.88;;;4.40;;
45198;SDS011;30941;46.422;18.772;2022-08-16T01:56:59;6.65;;;5.00;;
45198;SDS011;30941;46.422;18.772;2022-08-16T01:59:26;5.43;;;4.40;;
45198;SDS011;30941;46.422;18.772;2022-08-16T02:01:52;6.57;;;4.50;;
45198;SDS011;30941;46.422;18.772;2022-08-16T02:04:18;7.63;;;4.72;;
45198;SDS011;30941;46.422;18.772;2022-08-16T02:06:48;7.32;;;4.50;;
45198;SDS011;30941;46.422;18.772;2022-08-16T02:09:13;8.55;;;4.35;;
45198;SDS011;30941;46.422;18.772;2022-08-16T02:11:41;4.70;;;4.18;;
45198;SDS011;30941;46.422;18.772;2022-08-16T02:14:09;5.47;;;4.05;;
45198;SDS011;30941;46.422;18.772;2022-08-16T02:16:35;5.57;;;4.22;;
45198;SDS011;30941;46.422;18.772;2022-08-16T02:19:01;6.18;;;4.13;;
45198;SDS011;30941;46.422;18.772;2022-08-16T02:21:27;5.95;;;4.30;;
45198;SDS011;30941;46.422;18.772;2022-08-16T02:23:54;7.45;;;4.13;;
45198;SDS011;30941;46.422;18.772;2022-08-16T02:26:19;5.25;;;4.32;;
45198;SDS011;30941;46.422;18.772;2022-08-16T02:28:45;5.47;;;4.47;;
45198;SDS011;30941;46.422;18.772;2022-08-16T02:31:12;7.82;;;4.13;;
45198;SDS011;30941;46.422;18.772;2022-08-16T02:33:39;7.35;;;4.38;;
45198;SDS011;30941;46.422;18.772;2022-08-16T02:36:05;6.40;;;3.88;;
45198;SDS011;30941;46.422;18.772;2022-08-16T02:38:31;8.50;;;4.43;;
45198;SDS011;30941;46.422;18.772;2022-08-16T02:40:57;5.25;;;4.32;;
45198;SDS011;30941;46.422;18.772;2022-08-16T02:43:26;6.13;;;4.85;;
45198;SDS011;30941;46.422;18.772;2022-08-16T02:45:56;6.40;;;3.95;;
45198;SDS011;30941;46.422;18.772;2022-08-16T02:48:23;5.35;;;4.25;;
45198;SDS011;30941;46.422;18.772;2022-08-16T02:50:49;5.20;;;4.30;;
45198;SDS011;30941;46.422;18.772;2022-08-16T02:53:15;6.65;;;4.07;;
45198;SDS011;30941;46.422;18.772;2022-08-16T02:55:41;7.00;;;4.43;;
45198;SDS011;30941;46.422;18.772;2022-08-16T02:58:06;8.80;;;4.90;;
45198;SDS011;30941;46.422;18.772;2022-08-16T03:00:32;6.90;;;4.07;;
45198;SDS011;30941;46.422;18.772;2022-08-16T03:02:58;5.65;;;4.40;;
45198;SDS011;30941;46.422;18.772;2022-08-16T03:05:23;13.20;;;4.70;;
45198;SDS011;30941;46.422;18.772;2022-08-16T03:07:49;7.30;;;4.45;;
45198;SDS011;30941;46.422;18.772;2022-08-16T03:10:15;7.05;;;4.72;;
45198;SDS011;30941;46.422;18.772;2022-08-16T03:12:41;7.20;;;4.57;;
45198;SDS011;30941;46.422;18.772;2022-08-16T03:15:10;7.22;;;4.88;;
45198;SDS011;30941;46.422;18.772;2022-08-16T03:17:38;8.82;;;4.00;;
45198;SDS011;30941;46.422;18.772;2022-08-16T03:20:04;57.70;;;7.80;;
45198;SDS011;30941;46.422;18.772;2022-08-16T03:22:31;6.60;;;4.57;;
45198;SDS011;30941;46.422;18.772;2022-08-16T03:24:57;4.88;;;4.00;;
45198;SDS011;30941;46.422;18.772;2022-08-16T03:27:24;5.75;;;4.43;;
45198;SDS011;30941;46.422;18.772;2022-08-16T03:29:51;4.70;;;3.88;;
45198;SDS011;30941;46.422;18.772;2022-08-16T03:32:17;5.80;;;4.20;;
45198;SDS011;30941;46.422;18.772;2022-08-16T03:34:42;5.85;;;4.25;;
45198;SDS011;30941;46.422;18.772;2022-08-16T03:37:08;6.82;;;3.75;;
45198;SDS011;30941;46.422;18.772;2022-08-16T03:39:33;5.30;;;4.50;;
45198;SDS011;30941;46.422;18.772;2022-08-16T03:41:59;5.63;;;4.07;;
45198;SDS011;30941;46.422;18.772;2022-08-16T03:44:24;7.05;;;4.50;;
45198;SDS011;30941;46.422;18.772;2022-08-16T03:46:50;7.88;;;4.70;;
45198;SDS011;30941;46.422;18.772;2022-08-16T03:49:15;6.57;;;4.28;;
45198;SDS011;30941;46.422;18.772;2022-08-16T03:51:41;8.50;;;5.13;;
45198;SDS011;30941;46.422;18.772;2022-08-16T03:54:07;11.30;;;5.47;;
45198;SDS011;30941;46.422;18.772;2022-08-16T03:56:33;7.15;;;4.32;;
45198;SDS011;30941;46.422;18.772;2022-08-16T03:58:58;21.05;;;5.18;;
45198;SDS011;30941;46.422;18.772;2022-08-16T04:01:24;6.80;;;4.40;;
45198;SDS011;30941;46.422;18.772;2022-08-16T04:03:51;6.05;;;4.20;;
45198;SDS011;30941;46.422;18.772;2022-08-16T04:06:17;5.97;;;4.45;;
45198;SDS011;30941;46.422;18.772;2022-08-16T04:08:51;7.53;;;4.97;;
45198;SDS011;30941;46.422;18.772;2022-08-16T04:11:20;5.57;;;4.10;;
45198;SDS011;30941;46.422;18.772;2022-08-16T04:13:45;7.47;;;4.40;;
45198;SDS011;30941;46.422;18.772;2022-08-16T04:16:14;5.55;;;3.97;;
45198;SDS011;30941;46.422;18.772;2022-08-16T04:18:42;5.90;;;4.15;;
45198;SDS011;30941;46.422;18.772;2022-08-16T04:21:07;5.55;;;4.22;;
45198;SDS011;30941;46.422;18.772;2022-08-16T04:23:33;6.57;;;4.40;;
45198;SDS011;30941;46.422;18.772;2022-08-16T04:26:03;6.28;;;4.43;;
45198;SDS011;30941;46.422;18.772;2022-08-16T04:28:29;8.75;;;4.68;;
45198;SDS011;30941;46.422;18.772;2022-08-16T04:30:55;9.10;;;4.90;;
45198;SDS011;30941;46.422;18.772;2022-08-16T04:33:20;6.88;;;4.22;;
45198;SDS011;30941;46.422;18.772;2022-08-16T04:35:45;6.50;;;4.13;;
45198;SDS011;30941;46.422;18.772;2022-08-16T04:38:11;6.95;;;4.57;;
45198;SDS011;30941;46.422;18.772;2022-08-16T04:40:37;5.78;;;4.47;;
45198;SDS011;30941;46.422;18.772;2022-08-16T04:43:02;5.95;;;5.00;;
45198;SDS011;30941;46.422;18.772;2022-08-16T04:45:28;6.22;;;4.43;;
45198;SDS011;30941;46.422;18.772;2022-08-16T04:47:54;6.80;;;4.28;;
45198;SDS011;30941;46.422;18.772;2022-08-16T04:50:21;7.30;;;4.15;;
45198;SDS011;30941;46.422;18.772;2022-08-16T04:52:48;5.53;;;4.10;;
45198;SDS011;30941;46.422;18.772;2022-08-16T04:55:16;5.63;;;4.25;;
45198;SDS011;30941;46.422;18.772;2022-08-16T04:57:47;6.60;;;4.40;;
45198;SDS011;30941;46.422;18.772;2022-08-16T05:00:15;7.45;;;4.20;;
45198;SDS011;30941;46.422;18.772;2022-08-16T05:02:43;4.90;;;3.97;;
45198;SDS011;30941;46.422;18.772;2022-08-16T05:05:09;6.00;;;4.43;;
45198;SDS011;30941;46.422;18.772;2022-08-16T05:07:35;5.88;;;4.40;;
45198;SDS011;30941;46.422;18.772;2022-08-16T05:10:02;6.55;;;3.88;;
45198;SDS011;30941;46.422;18.772;2022-08-16T05:12:28;6.50;;;4.50;;
45198;SDS011;30941;46.422;18.772;2022-08-16T05:14:54;5.00;;;4.38;;
45198;SDS011;30941;46.422;18.772;2022-08-16T05:17:19;7.40;;;4.70;;
45198;SDS011;30941;46.422;18.772;2022-08-16T05:19:45;7.32;;;4.18;;
45198;SDS011;30941;46.422;18.772;2022-08-16T05:22:10;7.38;;;4.82;;
45198;SDS011;30941;46.422;18.772;2022-08-16T05:24:36;7.50;;;5.40;;
45198;SDS011;30941;46.422;18.772;2022-08-16T05:27:03;6.78;;;4.07;;
45198;SDS011;30941;46.422;18.772;2022-08-16T05:29:28;5.10;;;3.92;;
45198;SDS011;30941;46.422;18.772;2022-08-16T05:31:54;5.53;;;4.20;;
45198;SDS011;30941;46.422;18.772;2022-08-16T05:34:19;6.20;;;4.32;;
45198;SDS011;30941;46.422;18.772;2022-08-16T05:36:46;6.13;;;4.68;;
45198;SDS011;30941;46.422;18.772;2022-08-16T05:39:13;6.15;;;4.00;;
45198;SDS011;30941;46.422;18.772;2022-08-16T05:41:39;7.57;;;4.03;;
45198;SDS011;30941;46.422;18.772;2022-08-16T05:44:04;5.35;;;4.03;;
45198;SDS011;30941;46.422;18.772;2022-08-16T05:46:30;9.23;;;4.28;;
45198;SDS011;30941;46.422;18.772;2022-08-16T05:48:55;6.50;;;3.85;;
45198;SDS011;30941;46.422;18.772;2022-08-16T05:51:21;5.60;;;4.10;;
45198;SDS011;30941;46.422;18.772;2022-08-16T05:53:46;5.25;;;3.78;;
45198;SDS011;30941;46.422;18.772;2022-08-16T05:56:11;5.38;;;3.80;;
45198;SDS011;30941;46.422;18.772;2022-08-16T05:58:37;9.68;;;3.80;;
45198;SDS011;30941;46.422;18.772;2022-08-16T06:01:02;4.80;;;3.78;;
45198;SDS011;30941;46.422;18.772;2022-08-16T06:03:28;5.72;;;4.05;;
45198;SDS011;30941;46.422;18.772;2022-08-16T06:05:54;7.78;;;4.00;;
45198;SDS011;30941;46.422;18.772;2022-08-16T06:08:19;5.93;;;3.70;;
45198;SDS011;30941;46.422;18.772;2022-08-16T06:10:45;5.25;;;4.10;;
45198;SDS011;30941;46.422;18.772;2022-08-16T06:13:10;5.40;;;4.07;;
45198;SDS011;30941;46.422;18.772;2022-08-16T06:15:35;7.47;;;3.53;;
45198;SDS011;30941;46.422;18.772;2022-08-16T06:18:01;6.35;;;4.03;;
45198;SDS011;30941;46.422;18.772;2022-08-16T06:20:27;6.30;;;3.92;;
45198;SDS011;30941;46.422;18.772;2022-08-16T06:22:53;7.68;;;4.60;;
45198;SDS011;30941;46.422;18.772;2022-08-16T06:25:20;8.65;;;4.25;;
45198;SDS011;30941;46.422;18.772;2022-08-16T06:27:46;6.45;;;4.82;;
45198;SDS011;30941;46.422;18.772;2022-08-16T06:30:12;7.07;;;3.70;;
45198;SDS011;30941;46.422;18.772;2022-08-16T06:32:37;11.13;;;4.38;;
45198;SDS011;30941;46.422;18.772;2022-08-16T06:35:03;6.03;;;4.07;;
45198;SDS011;30941;46.422;18.772;2022-08-16T06:37:29;5.25;;;3.78;;
45198;SDS011;30941;46.422;18.772;2022-08-16T06:39:55;5.95;;;3.83;;
45198;SDS011;30941;46.422;18.772;2022-08-16T06:42:20;8.07;;;3.63;;
45198;SDS011;30941;46.422;18.772;2022-08-16T06:44:45;5.45;;;3.30;;
45198;SDS011;30941;46.422;18.772;2022-08-16T06:47:12;5.70;;;3.40;;
45198;SDS011;30941;46.422;18.772;2022-08-16T06:49:38;6.00;;;3.42;;
45198;SDS011;30941;46.422;18.772;2022-08-16T06:52:03;4.80;;;3.33;;
45198;SDS011;30941;46.422;18.772;2022-08-16T06:54:29;7.40;;;3.42;;
45198;SDS011;30941;46.422;18.772;2022-08-16T06:56:54;4.65;;;3.17;;
45198;SDS011;30941;46.422;18.772;2022-08-16T06:59:20;7.82;;;3.25;;
45198;SDS011;30941;46.422;18.772;2022-08-16T07:01:46;4.20;;;2.97;;
45198;SDS011;30941;46.422;18.772;2022-08-16T07:04:12;4.65;;;3.10;;
45198;SDS011;30941;46.422;18.772;2022-08-16T07:06:39;4.63;;;3.15;;
45198;SDS011;30941;46.422;18.772;2022-08-16T07:09:05;4.85;;;3.25;;
45198;SDS011;30941;46.422;18.772;2022-08-16T07:11:31;4.13;;;3.30;;
45198;SDS011;30941;46.422;18.772;2022-08-16T07:13:56;6.32;;;3.78;;
45198;SDS011;30941;46.422;18.772;2022-08-16T07:16:23;3.72;;;3.13;;
45198;SDS011;30941;46.422;18.772;2022-08-16T07:18:49;3.70;;;3.05;;
45198;SDS011;30941;46.422;18.772;2022-08-16T07:21:16;3.78;;;3.10;;
45198;SDS011;30941;46.422;18.772;2022-08-16T07:23:41;6.68;;;3.10;;
45198;SDS011;30941;46.422;18.772;2022-08-16T07:26:17;5.97;;;3.33;;
45198;SDS011;30941;46.422;18.772;2022-08-16T07:28:47;5.13;;;3.15;;
45198;SDS011;30941;46.422;18.772;2022-08-16T07:31:13;4.18;;;2.72;;
45198;SDS011;30941;46.422;18.772;2022-08-16T07:33:39;3.58;;;2.70;;
45198;SDS011;30941;46.422;18.772;2022-08-16T07:36:05;4.80;;;3.40;;
45198;SDS011;30941;46.422;18.772;2022-08-16T07:38:32;4.65;;;3.10;;
45198;SDS011;30941;46.422;18.772;2022-08-16T07:40:58;3.45;;;2.80;;
45198;SDS011;30941;46.422;18.772;2022-08-16T07:43:24;4.40;;;3.05;;
45198;SDS011;30941;46.422;18.772;2022-08-16T07:45:50;4.35;;;3.10;;
45198;SDS011;30941;46.422;18.772;2022-08-16T07:48:15;4.05;;;2.88;;
45198;SDS011;30941;46.422;18.772;2022-08-16T07:50:42;3.30;;;2.97;;
45198;SDS011;30941;46.422;18.772;2022-08-16T07:53:07;3.80;;;3.20;;
45198;SDS011;30941;46.422;18.772;2022-08-16T07:55:33;5.22;;;2.90;;
45198;SDS011;30941;46.422;18.772;2022-08-16T07:58:00;3.78;;;2.63;;
45198;SDS011;30941;46.422;18.772;2022-08-16T08:00:25;3.95;;;3.00;;
45198;SDS011;30941;46.422;18.772;2022-08-16T08:02:51;5.63;;;3.10;;
45198;SDS011;30941;46.422;18.772;2022-08-16T08:05:17;5.45;;;3.22;;
45198;SDS011;30941;46.422;18.772;2022-08-16T08:07:43;4.13;;;2.95;;
45198;SDS011;30941;46.422;18.772;2022-08-16T08:10:08;6.75;;;3.17;;
45198;SDS011;30941;46.422;18.772;2022-08-16T08:12:34;3.38;;;3.08;;
45198;SDS011;30941;46.422;18.772;2022-08-16T08:15:00;3.92;;;3.10;;
45198;SDS011;30941;46.422;18.772;2022-08-16T08:17:26;6.10;;;2.80;;
45198;SDS011;30941;46.422;18.772;2022-08-16T08:19:53;4.25;;;3.00;;
45198;SDS011;30941;46.422;18.772;2022-08-16T08:22:19;4.78;;;2.97;;
45198;SDS011;30941;46.422;18.772;2022-08-16T08:24:46;3.83;;;2.92;;
45198;SDS011;30941;46.422;18.772;2022-08-16T08:27:12;4.72;;;3.30;;
45198;SDS011;30941;46.422;18.772;2022-08-16T08:29:38;4.20;;;3.13;;
45198;SDS011;30941;46.422;18.772;2022-08-16T08:32:04;5.57;;;3.38;;
45198;SDS011;30941;46.422;18.772;2022-08-16T08:34:31;4.75;;;2.95;;
45198;SDS011;30941;46.422;18.772;2022-08-16T08:36:57;3.88;;;3.20;;
45198;SDS011;30941;46.422;18.772;2022-08-16T08:39:23;5.32;;;3.20;;
45198;SDS011;30941;46.422;18.772;2022-08-16T08:41:48;5.68;;;2.97;;
45198;SDS011;30941;46.422;18.772;2022-08-16T08:44:14;6.20;;;4.07;;
45198;SDS011;30941;46.422;18.772;2022-08-16T08:46:39;4.20;;;3.10;;
45198;SDS011;30941;46.422;18.772;2022-08-16T08:49:05;5.38;;;3.30;;
45198;SDS011;30941;46.422;18.772;2022-08-16T08:51:33;3.80;;;2.85;;
45198;SDS011;30941;46.422;18.772;2022-08-16T08:53:59;5.38;;;3.30;;
45198;SDS011;30941;46.422;18.772;2022-08-16T08:56:24;4.13;;;2.90;;
45198;SDS011;30941;46.422;18.772;2022-08-16T08:58:50;3.70;;;2.90;;
45198;SDS011;30941;46.422;18.772;2022-08-16T09:01:18;3.13;;;2.80;;
45198;SDS011;30941;46.422;18.772;2022-08-16T09:03:45;4.55;;;2.97;;
45198;SDS011;30941;46.422;18.772;2022-08-16T09:06:11;3.60;;;3.00;;
45198;SDS011;30941;46.422;18.772;2022-08-16T09:08:36;3.63;;;2.97;;
45198;SDS011;30941;46.422;18.772;2022-08-16T09:11:04;2.95;;;2.65;;
45198;SDS011;30941;46.422;18.772;2022-08-16T09:13:29;3.20;;;2.85;;
45198;SDS011;30941;46.422;18.772;2022-08-16T09:15:57;5.85;;;2.90;;
45198;SDS011;30941;46.422;18.772;2022-08-16T09:18:22;4.82;;;3.00;;
45198;SDS011;30941;46.422;18.772;2022-08-16T09:20:49;3.75;;;2.80;;
45198;SDS011;30941;46.422;18.772;2022-08-16T09:23:17;3.30;;;3.00;;
45198;SDS011;30941;46.422;18.772;2022-08-16T09:25:43;4.25;;;3.03;;
45198;SDS011;30941;46.422;18.772;2022-08-16T09:28:08;3.10;;;2.72;;
45198;SDS011;30941;46.422;18.772;2022-08-16T09:30:34;4.40;;;2.70;;
45198;SDS011;30941;46.422;18.772;2022-08-16T09:33:00;3.65;;;2.67;;
45198;SDS011;30941;46.422;18.772;2022-08-16T09:35:26;3.00;;;2.70;;
45198;SDS011;30941;46.422;18.772;2022-08-16T09:37:52;3.22;;;2.75;;
45198;SDS011;30941;46.422;18.772;2022-08-16T09:40:17;3.22;;;2.80;;
45198;SDS011;30941;46.422;18.772;2022-08-16T09:42:43;3.83;;;2.70;;
45198;SDS011;30941;46.422;18.772;2022-08-16T09:45:09;4.20;;;3.22;;
45198;SDS011;30941;46.422;18.772;2022-08-16T09:47:35;3.10;;;2.70;;
45198;SDS011;30941;46.422;18.772;2022-08-16T09:50:11;3.67;;;3.13;;
45198;SDS011;30941;46.422;18.772;2022-08-16T09:52:37;2.65;;;2.45;;
45198;SDS011;30941;46.422;18.772;2022-08-16T09:55:07;4.30;;;2.90;;
45198;SDS011;30941;46.422;18.772;2022-08-16T09:57:37;4.25;;;2.80;;
45198;SDS011;30941;46.422;18.772;2022-08-16T10:00:05;3.95;;;2.97;;
45198;SDS011;30941;46.422;18.772;2022-08-16T10:02:32;4.40;;;2.92;;
45198;SDS011;30941;46.422;18.772;2022-08-16T10:04:58;3.55;;;2.60;;
45198;SDS011;30941;46.422;18.772;2022-08-16T10:07:24;3.70;;;2.70;;
45198;SDS011;30941;46.422;18.772;2022-08-16T10:09:51;3.60;;;3.03;;
45198;SDS011;30941;46.422;18.772;2022-08-16T10:12:16;4.47;;;3.13;;
45198;SDS011;30941;46.422;18.772;2022-08-16T10:15:00;3.30;;;2.67;;
45198;SDS011;30941;46.422;18.772;2022-08-16T10:17:26;4.55;;;2.95;;
45198;SDS011;30941;46.422;18.772;2022-08-16T10:19:51;4.03;;;2.92;;
45198;SDS011;30941;46.422;18.772;2022-08-16T10:22:19;4.97;;;2.72;;
45198;SDS011;30941;46.422;18.772;2022-08-16T10:24:45;5.78;;;2.70;;
45198;SDS011;30941;46.422;18.772;2022-08-16T10:27:11;5.13;;;2.80;;
45198;SDS011;30941;46.422;18.772;2022-08-16T10:29:36;3.70;;;2.90;;
45198;SDS011;30941;46.422;18.772;2022-08-16T10:32:02;2.85;;;2.58;;
45198;SDS011;30941;46.422;18.772;2022-08-16T10:34:28;4.68;;;2.65;;
45198;SDS011;30941;46.422;18.772;2022-08-16T10:36:53;4.85;;;3.20;;
45198;SDS011;30941;46.422;18.772;2022-08-16T10:39:19;2.85;;;2.60;;
45198;SDS011;30941;46.422;18.772;2022-08-16T10:41:44;4.35;;;2.97;;
45198;SDS011;30941;46.422;18.772;2022-08-16T10:44:09;3.97;;;3.05;;
45198;SDS011;30941;46.422;18.772;2022-08-16T10:46:35;2.58;;;2.38;;
45198;SDS011;30941;46.422;18.772;2022-08-16T10:49:01;4.28;;;2.78;;
45198;SDS011;30941;46.422;18.772;2022-08-16T10:51:26;4.85;;;2.80;;
45198;SDS011;30941;46.422;18.772;2022-08-16T10:53:52;3.58;;;3.00;;
45198;SDS011;30941;46.422;18.772;2022-08-16T10:56:17;5.20;;;3.00;;
45198;SDS011;30941;46.422;18.772;2022-08-16T10:58:43;3.40;;;2.80;;
45198;SDS011;30941;46.422;18.772;2022-08-16T11:01:10;3.55;;;2.72;;
45198;SDS011;30941;46.422;18.772;2022-08-16T11:03:36;3.53;;;2.88;;
45198;SDS011;30941;46.422;18.772;2022-08-16T11:06:03;4.15;;;2.60;;
45198;SDS011;30941;46.422;18.772;2022-08-16T11:08:30;2.88;;;2.40;;
45198;SDS011;30941;46.422;18.772;2022-08-16T11:10:56;3.50;;;2.67;;
45198;SDS011;30941;46.422;18.772;2022-08-16T11:13:22;3.78;;;2.63;;
45198;SDS011;30941;46.422;18.772;2022-08-16T11:15:50;4.95;;;2.58;;
45198;SDS011;30941;46.422;18.772;2022-08-16T11:18:16;8.15;;;2.85;;
45198;SDS011;30941;46.422;18.772;2022-08-16T11:20:42;3.25;;;2.90;;
45198;SDS011;30941;46.422;18.772;2022-08-16T11:23:08;3.88;;;2.90;;
45198;SDS011;30941;46.422;18.772;2022-08-16T11:25:35;4.35;;;2.70;;
45198;SDS011;30941;46.422;18.772;2022-08-16T11:28:01;4.65;;;2.60;;
45198;SDS011;30941;46.422;18.772;2022-08-16T11:30:28;4.38;;;2.63;;
45198;SDS011;30941;46.422;18.772;2022-08-16T11:32:54;4.55;;;2.72;;
45198;SDS011;30941;46.422;18.772;2022-08-16T11:35:21;3.10;;;2.80;;
45198;SDS011;30941;46.422;18.772;2022-08-16T11:37:49;3.63;;;2.75;;
45198;SDS011;30941;46.422;18.772;2022-08-16T11:40:20;6.15;;;2.70;;
45198;SDS011;30941;46.422;18.772;2022-08-16T11:42:46;4.30;;;2.72;;
45198;SDS011;30941;46.422;18.772;2022-08-16T11:45:11;4.03;;;2.72;;
45198;SDS011;30941;46.422;18.772;2022-08-16T11:47:37;6.05;;;2.75;;
45198;SDS011;30941;46.422;18.772;2022-08-16T11:50:06;2.88;;;2.28;;
45198;SDS011;30941;46.422;18.772;2022-08-16T11:52:33;3.83;;;2.50;;
45198;SDS011;30941;46.422;18.772;2022-08-16T11:55:06;3.08;;;2.22;;
45198;SDS011;30941;46.422;18.772;2022-08-16T11:59:58;3.42;;;2.70;;
45198;SDS011;30941;46.422;18.772;2022-08-16T12:02:24;3.65;;;2.50;;
45198;SDS011;30941;46.422;18.772;2022-08-16T12:04:50;3.30;;;2.50;;
45198;SDS011;30941;46.422;18.772;2022-08-16T12:07:15;3.70;;;2.47;;
45198;SDS011;30941;46.422;18.772;2022-08-16T12:09:41;3.10;;;2.38;;
45198;SDS011;30941;46.422;18.772;2022-08-16T12:12:06;2.65;;;2.30;;
45198;SDS011;30941;46.422;18.772;2022-08-16T12:14:34;4.95;;;2.85;;
45198;SDS011;30941;46.422;18.772;2022-08-16T12:17:00;4.68;;;3.10;;
45198;SDS011;30941;46.422;18.772;2022-08-16T12:19:27;5.43;;;2.67;;
45198;SDS011;30941;46.422;18.772;2022-08-16T12:21:53;5.03;;;2.60;;
45198;SDS011;30941;46.422;18.772;2022-08-16T12:24:18;3.80;;;2.67;;
45198;SDS011;30941;46.422;18.772;2022-08-16T12:26:44;4.93;;;2.80;;
45198;SDS011;30941;46.422;18.772;2022-08-16T12:29:10;4.63;;;2.67;;
45198;SDS011;30941;46.422;18.772;2022-08-16T12:31:35;3.63;;;2.78;;
45198;SDS011;30941;46.422;18.772;2022-08-16T12:34:01;4.40;;;2.58;;
45198;SDS011;30941;46.422;18.772;2022-08-16T12:36:26;4.00;;;2.63;;
45198;SDS011;30941;46.422;18.772;2022-08-16T12:38:52;3.58;;;2.85;;
45198;SDS011;30941;46.422;18.772;2022-08-16T12:41:19;3.53;;;2.72;;
45198;SDS011;30941;46.422;18.772;2022-08-16T12:43:45;4.88;;;2.67;;
45198;SDS011;30941;46.422;18.772;2022-08-16T12:46:10;5.70;;;3.50;;
45198;SDS011;30941;46.422;18.772;2022-08-16T12:48:37;6.25;;;3.15;;
45198;SDS011;30941;46.422;18.772;2022-08-16T12:51:22;6.20;;;2.60;;
45198;SDS011;30941;46.422;18.772;2022-08-16T12:53:51;4.80;;;2.80;;
45198;SDS011;30941;46.422;18.772;2022-08-16T12:56:18;5.55;;;2.72;;
45198;SDS011;30941;46.422;18.772;2022-08-16T12:58:45;4.50;;;3.05;;
45198;SDS011;30941;46.422;18.772;2022-08-16T13:01:25;4.90;;;2.60;;
45198;SDS011;30941;46.422;18.772;2022-08-16T13:03:52;4.07;;;2.85;;
45198;SDS011;30941;46.422;18.772;2022-08-16T13:06:22;3.70;;;2.65;;
45198;SDS011;30941;46.422;18.772;2022-08-16T13:08:49;4.47;;;2.70;;
45198;SDS011;30941;46.422;18.772;2022-08-16T13:11:16;9.68;;;3.03;;
45198;SDS011;30941;46.422;18.772;2022-08-16T13:13:45;5.78;;;3.35;;
45198;SDS011;30941;46.422;18.772;2022-08-16T13:16:11;4.20;;;2.85;;
45198;SDS011;30941;46.422;18.772;2022-08-16T13:18:36;3.78;;;2.70;;
45198;SDS011;30941;46.422;18.772;2022-08-16T13:21:03;3.70;;;2.63;;
45198;SDS011;30941;46.422;18.772;2022-08-16T13:23:30;5.82;;;3.47;;
45198;SDS011;30941;46.422;18.772;2022-08-16T13:25:56;3.97;;;2.55;;
45198;SDS011;30941;46.422;18.772;2022-08-16T13:28:21;7.90;;;3.80;;
45198;SDS011;30941;46.422;18.772;2022-08-16T13:30:48;4.57;;;2.78;;
45198;SDS011;30941;46.422;18.772;2022-08-16T13:33:17;10.90;;;3.08;;
45198;SDS011;30941;46.422;18.772;2022-08-16T13:35:45;6.10;;;2.80;;
45198;SDS011;30941;46.422;18.772;2022-08-16T13:38:13;6.35;;;3.03;;
45198;SDS011;30941;46.422;18.772;2022-08-16T13:40:39;11.90;;;3.55;;
45198;SDS011;30941;46.422;18.772;2022-08-16T13:43:05;9.00;;;3.55;;
45198;SDS011;30941;46.422;18.772;2022-08-16T13:45:31;7.43;;;2.80;;
45198;SDS011;30941;46.422;18.772;2022-08-16T13:47:57;4.82;;;2.75;;
45198;SDS011;30941;46.422;18.772;2022-08-16T13:50:23;4.38;;;2.88;;
45198;SDS011;30941;46.422;18.772;2022-08-16T13:52:49;7.20;;;2.65;;
45198;SDS011;30941;46.422;18.772;2022-08-16T13:55:15;3.72;;;2.28;;
45198;SDS011;30941;46.422;18.772;2022-08-16T13:57:41;4.85;;;2.50;;
45198;SDS011;30941;46.422;18.772;2022-08-16T14:00:07;6.00;;;2.80;;
45198;SDS011;30941;46.422;18.772;2022-08-16T14:02:33;7.18;;;3.10;;
45198;SDS011;30941;46.422;18.772;2022-08-16T14:04:59;4.03;;;2.58;;
45198;SDS011;30941;46.422;18.772;2022-08-16T14:07:25;4.25;;;2.75;;
45198;SDS011;30941;46.422;18.772;2022-08-16T14:09:51;4.05;;;2.75;;
45198;SDS011;30941;46.422;18.772;2022-08-16T14:12:21;5.03;;;2.88;;
45198;SDS011;30941;46.422;18.772;2022-08-16T14:14:48;4.25;;;2.95;;
45198;SDS011;30941;46.422;18.772;2022-08-16T14:17:15;4.78;;;2.60;;
45198;SDS011;30941;46.422;18.772;2022-08-16T14:19:41;4.88;;;2.63;;
45198;SDS011;30941;46.422;18.772;2022-08-16T14:22:06;6.47;;;2.90;;
45198;SDS011;30941;46.422;18.772;2022-08-16T14:24:32;6.43;;;2.70;;
45198;SDS011;30941;46.422;18.772;2022-08-16T14:26:57;5.13;;;3.00;;
45198;SDS011;30941;46.422;18.772;2022-08-16T14:29:23;7.05;;;2.67;;
45198;SDS011;30941;46.422;18.772;2022-08-16T14:31:48;3.78;;;2.67;;
45198;SDS011;30941;46.422;18.772;2022-08-16T14:34:14;5.03;;;3.10;;
45198;SDS011;30941;46.422;18.772;2022-08-16T14:36:40;6.72;;;2.90;;
45198;SDS011;30941;46.422;18.772;2022-08-16T14:39:06;5.95;;;3.00;;